New Bern, NC (28560)

3:23 PM EST on December 18, 2014 (GMT -0500)
Fairfield Harbour | Change Station
CLOSE
Current Station
Personal Weather Station
Location: New Bern, NC
Elevation: 20 ft
Nearby Weather Stations

Elev 20 ft 35.08 °N, 76.98 °W | Updated 11 seconds ago

Clear
Clear
51.3 °F
Feels Like 51.3 °F
N
0.0
Wind Variable Wind from WNW
Gusts 0.0 mph

Today
High -- | Low -- °F
--% Chance of Precip.
Yesterday
High -- | Low -- °F
Precip. -- in
7:10 AM 4:58 PM
Waning Crescent, 12% visible
Pressure 30.11 in
Visibility 10.0 miles
Clouds Clear
Dew Point 30 °F
Humidity 44%
Rainfall 0.00 in
Snow Depth Not available.
UV 1.0 out of 12
Pollen 2.00 out of 12
Air Quality Not available.
Flu Activity Not available.
METAR KEWN 181954Z 00000KT 10SM CLR 12/M03 A3011 RMK AO2 SLP194 T01221028

More Conditions Fewer Conditions

Pressure 30.11 in
Visibility 10.0 miles
Clouds Clear
Dew Point 30 °F
Humidity 44%
Rainfall 0.00 in
Snow Depth Not available.
UV 1.0 out of 12
Pollen 2.00 out of 12
Air Quality Not available.
Flu Activity Not available.
METAR KEWN 181954Z 00000KT 10SM CLR 12/M03 A3011 RMK AO2 SLP194 T01221028

More Conditions Fewer Conditions

10-Day Weather Forecast

Almanac

Astronomy

Dec. 18, 2014 Rise Set
Actual Time
Civil Twilight
Nautical Twilight
Astronomical Twilight
Moon
Length of Visible Light
Length of Day
Tomorrow will be .
, % of the Moon is Illuminated

Today's Extremes

State Highs State Lows

Community

WunderPhotos

Upload Photos

1,778,993 photos uploaded!

WunderBlogs® & News

Nearby

Air Quality

  Air Quality AQ Index Pollutant
Not available.

Snow Depth

Station Depth Elevation

Earthquake Activity

City Distance Mag. Time & Date
Minimum magnitude displayed is 2.5.

Coastal Water Temperatures

Place Temperature

Nearby Weather Stations